Terminal Aerodrome Forecast
Issued by NWS

Home | Current Version | Previous Version | Text Only | Print | Product List | Glossary Off
Versions: 1 2 3 4 5 6 7 8 9 10 11 12 13 14 15 16 17 18 19 20 21

000
FTUS43 KGRB 211545 AAB
TAFCWA
TAF AMD
KCWA 211545Z 2116/2212 17012KT P6SM -DZ SCT045 BKN080
     FM211800 23012G20KT P6SM SCT035 BKN150
     FM212000 24012G19KT P6SM SCT040
     FM220100 25008KT P6SM SCT040
     FM220600 28004KT 3SM BR SCT020
     FM220700 29004KT 2SM BR SCT020=

USA.gov is the U.S. government's official web portal to all federal, state and local government web resources and services.